DLH4ER EDDM-HECA
Flight info
| Callsign | DLH4ER |
|---|---|
| Flight time | N/A |
| Altitude | 33000 |
| Route | VAVOR3S VAVOR M867 RADIZ DCT NIPEL/N0482F410 DCT ABISO DCT NEMEK DCT AKIKA DCT MAVAR DCT BITLA DCT KPC UN139 KUMBI L612 BLT A16 CVO |
| Aircraft | A359/H-SDE2E3GHIJ3J4J5LM1ORWXY/LB1D1 |
Departure
| Time | 2026-05-05 17:09 |
|---|---|
| Airport | Munich Airport (EDDM) |
Arrival
| Time | N/A |
|---|---|
| Airport | Cairo International Airport (HECA) |
| Time | Latitude | Longitude | Altitude | Speed | Heading |
|---|---|---|---|---|---|
| 2026-05-05 16:44 | 48.35307 | 11.79353 | 1492 ft | 0 kts | 262° |
| 2026-05-05 16:56 | 48.35308 | 11.79362 | 1476 ft | 4 kts | 262° |
| 2026-05-05 16:56 | 48.35311 | 11.79402 | 1478 ft | 4 kts | 263° |
| 2026-05-05 16:57 | 48.35314 | 11.79438 | 1476 ft | 4 kts | 262° |
| 2026-05-05 16:57 | 48.35322 | 11.79470 | 1476 ft | 4 kts | 206° |
| 2026-05-05 16:57 | 48.35346 | 11.79474 | 1476 ft | 4 kts | 172° |
| 2026-05-05 16:57 | 48.35356 | 11.79472 | 1479 ft | 0 kts | 174° |
| 2026-05-05 17:01 | 48.35355 | 11.79472 | 1492 ft | 2 kts | 174° |
| 2026-05-05 17:01 | 48.35296 | 11.79481 | 1480 ft | 15 kts | 174° |
| 2026-05-05 17:02 | 48.35183 | 11.79501 | 1477 ft | 17 kts | 173° |
| 2026-05-05 17:02 | 48.35056 | 11.79524 | 1476 ft | 19 kts | 173° |
| 2026-05-05 17:02 | 48.34926 | 11.79546 | 1492 ft | 14 kts | 173° |
| 2026-05-05 17:02 | 48.34899 | 11.79551 | 1481 ft | 0 kts | 173° |
| 2026-05-05 17:03 | 48.34841 | 11.79562 | 1482 ft | 13 kts | 168° |
| 2026-05-05 17:03 | 48.34796 | 11.79657 | 1480 ft | 12 kts | 85° |
| 2026-05-05 17:03 | 48.34810 | 11.79792 | 1478 ft | 14 kts | 81° |
| 2026-05-05 17:04 | 48.34820 | 11.79944 | 1483 ft | 15 kts | 83° |
| 2026-05-05 17:04 | 48.34835 | 11.80111 | 1481 ft | 17 kts | 82° |
| 2026-05-05 17:04 | 48.34849 | 11.80289 | 1483 ft | 18 kts | 84° |
| 2026-05-05 17:04 | 48.34848 | 11.80480 | 1481 ft | 18 kts | 113° |
| 2026-05-05 17:05 | 48.34761 | 11.80557 | 1480 ft | 14 kts | 170° |
| 2026-05-05 17:05 | 48.34659 | 11.80572 | 1479 ft | 16 kts | 181° |
| 2026-05-05 17:05 | 48.34561 | 11.80499 | 1476 ft | 17 kts | 219° |
| 2026-05-05 17:05 | 48.34482 | 11.80380 | 1476 ft | 14 kts | 240° |
| 2026-05-05 17:06 | 48.34469 | 11.80310 | 1490 ft | 0 kts | 262° |
| 2026-05-05 17:08 | 48.34454 | 11.80120 | 1481 ft | 53 kts | 263° |
| 2026-05-05 17:08 | 48.34386 | 11.79216 | 1492 ft | 119 kts | 264° |
| 2026-05-05 17:08 | 48.34262 | 11.77690 | 1527 ft | 170 kts | 264° |
| 2026-05-05 17:09 | 48.34110 | 11.75887 | 2199 ft | 172 kts | 265° |
| 2026-05-05 17:09 | 48.33995 | 11.74154 | 3163 ft | 162 kts | 269° |
| 2026-05-05 17:09 | 48.33851 | 11.72339 | 3461 ft | 190 kts | 259° |
| 2026-05-05 17:09 | 48.33065 | 11.70547 | 3734 ft | 224 kts | 222° |
| 2026-05-05 17:10 | 48.31589 | 11.69727 | 4468 ft | 234 kts | 182° |
| 2026-05-05 17:10 | 48.30006 | 11.70283 | 5318 ft | 235 kts | 162° |
| 2026-05-05 17:10 | 48.28519 | 11.71224 | 6188 ft | 234 kts | 156° |
| 2026-05-05 17:10 | 48.27084 | 11.72438 | 6940 ft | 242 kts | 150° |
| 2026-05-05 17:11 | 48.25632 | 11.73878 | 7534 ft | 258 kts | 149° |
| 2026-05-05 17:11 | 48.24109 | 11.75449 | 8165 ft | 272 kts | 149° |
| 2026-05-05 17:11 | 48.22527 | 11.77075 | 9044 ft | 279 kts | 149° |
| 2026-05-05 17:11 | 48.20905 | 11.78729 | 9926 ft | 284 kts | 149° |
| 2026-05-05 17:12 | 48.19256 | 11.80405 | 10789 ft | 289 kts | 149° |
| 2026-05-05 17:12 | 48.17683 | 11.82334 | 11647 ft | 298 kts | 137° |
| 2026-05-05 17:12 | 48.16266 | 11.84734 | 12159 ft | 319 kts | 133° |
| 2026-05-05 17:12 | 48.14815 | 11.87395 | 12540 ft | 340 kts | 132° |
| 2026-05-05 17:13 | 48.13280 | 11.90220 | 12927 ft | 359 kts | 132° |
| 2026-05-05 17:13 | 48.11670 | 11.93167 | 13530 ft | 370 kts | 132° |
| 2026-05-05 17:13 | 48.10024 | 11.96169 | 14236 ft | 376 kts | 132° |
| 2026-05-05 17:13 | 48.08354 | 11.99201 | 15004 ft | 379 kts | 132° |
| 2026-05-05 17:14 | 48.06497 | 12.02004 | 15763 ft | 378 kts | 143° |
| 2026-05-05 17:14 | 48.04373 | 12.04334 | 16539 ft | 380 kts | 148° |
| 2026-05-05 17:14 | 48.02174 | 12.06572 | 17300 ft | 384 kts | 148° |
| 2026-05-05 17:14 | 47.99953 | 12.08818 | 18011 ft | 388 kts | 148° |
| 2026-05-05 17:15 | 47.97729 | 12.11071 | 18654 ft | 393 kts | 148° |
| 2026-05-05 17:15 | 47.95466 | 12.13368 | 19355 ft | 395 kts | 148° |
| 2026-05-05 17:15 | 47.93208 | 12.15747 | 20075 ft | 399 kts | 146° |
| 2026-05-05 17:15 | 47.91012 | 12.18314 | 20790 ft | 403 kts | 144° |
| 2026-05-05 17:16 | 47.88845 | 12.21001 | 21493 ft | 407 kts | 143° |
| 2026-05-05 17:16 | 47.86680 | 12.23759 | 22183 ft | 411 kts | 142° |
| 2026-05-05 17:16 | 47.84505 | 12.26547 | 22889 ft | 414 kts | 143° |
| 2026-05-05 17:16 | 47.82306 | 12.29353 | 23541 ft | 417 kts | 143° |
| 2026-05-05 17:17 | 47.80087 | 12.32165 | 24110 ft | 421 kts | 143° |
| 2026-05-05 17:17 | 47.77841 | 12.34992 | 24659 ft | 425 kts | 143° |
| 2026-05-05 17:17 | 47.75563 | 12.37846 | 25153 ft | 430 kts | 144° |
| 2026-05-05 17:17 | 47.73259 | 12.40720 | 25642 ft | 435 kts | 144° |
| 2026-05-05 17:18 | 47.70932 | 12.43619 | 26224 ft | 438 kts | 144° |
| 2026-05-05 17:18 | 47.68591 | 12.46525 | 26797 ft | 441 kts | 144° |
| 2026-05-05 17:18 | 47.66220 | 12.49448 | 27353 ft | 445 kts | 144° |
| 2026-05-05 17:18 | 47.63829 | 12.52386 | 27895 ft | 448 kts | 144° |
| 2026-05-05 17:19 | 47.61421 | 12.55354 | 28432 ft | 452 kts | 144° |
| 2026-05-05 17:19 | 47.59046 | 12.58446 | 28969 ft | 457 kts | 142° |
| 2026-05-05 17:19 | 47.56696 | 12.61638 | 29441 ft | 460 kts | 141° |
| 2026-05-05 17:19 | 47.54338 | 12.64877 | 29844 ft | 465 kts | 141° |
| 2026-05-05 17:20 | 47.51960 | 12.68147 | 30216 ft | 469 kts | 141° |
| 2026-05-05 17:20 | 47.49550 | 12.71439 | 30493 ft | 474 kts | 142° |
| 2026-05-05 17:20 | 47.47110 | 12.74751 | 30816 ft | 478 kts | 142° |
| 2026-05-05 17:20 | 47.44678 | 12.78037 | 31205 ft | 481 kts | 142° |
| 2026-05-05 17:21 | 47.42200 | 12.81366 | 31537 ft | 483 kts | 142° |
| 2026-05-05 17:21 | 47.39702 | 12.84709 | 31919 ft | 486 kts | 142° |
| 2026-05-05 17:21 | 47.37195 | 12.88060 | 32216 ft | 489 kts | 142° |
| 2026-05-05 17:22 | 47.32123 | 12.94823 | 32758 ft | 494 kts | 142° |
| 2026-05-05 17:22 | 47.27042 | 13.01587 | 32853 ft | 490 kts | 141° |
| 2026-05-05 17:23 | 47.21988 | 13.08292 | 32876 ft | 489 kts | 142° |
| 2026-05-05 17:23 | 47.16930 | 13.14986 | 32880 ft | 488 kts | 142° |
| 2026-05-05 17:24 | 47.11886 | 13.21646 | 32902 ft | 488 kts | 142° |
| 2026-05-05 17:24 | 47.06829 | 13.28301 | 32912 ft | 488 kts | 142° |
| 2026-05-05 17:25 | 47.01769 | 13.34945 | 32925 ft | 489 kts | 142° |
| 2026-05-05 17:25 | 46.96707 | 13.41574 | 32930 ft | 487 kts | 142° |
| 2026-05-05 17:26 | 46.91681 | 13.48143 | 32951 ft | 487 kts | 142° |
| 2026-05-05 17:26 | 46.86625 | 13.54731 | 32953 ft | 487 kts | 142° |
| 2026-05-05 17:27 | 46.81555 | 13.61309 | 32958 ft | 488 kts | 142° |
| 2026-05-05 17:27 | 46.77324 | 13.66787 | 32952 ft | 490 kts | 142° |
| 2026-05-05 17:28 | 46.72217 | 13.73385 | 32967 ft | 491 kts | 142° |
| 2026-05-05 17:28 | 46.67110 | 13.79980 | 32954 ft | 491 kts | 142° |
| 2026-05-05 17:29 | 46.61995 | 13.86561 | 32967 ft | 491 kts | 142° |
| 2026-05-05 17:29 | 46.56864 | 13.93136 | 32966 ft | 493 kts | 142° |
| 2026-05-05 17:30 | 46.51712 | 13.99722 | 32963 ft | 494 kts | 142° |
| 2026-05-05 17:30 | 46.46573 | 14.06366 | 32964 ft | 494 kts | 140° |
| 2026-05-05 17:31 | 46.41654 | 14.13328 | 32965 ft | 495 kts | 139° |
| 2026-05-05 17:31 | 46.36779 | 14.20357 | 32982 ft | 495 kts | 139° |
| 2026-05-05 17:32 | 46.31879 | 14.27316 | 32995 ft | 497 kts | 139° |
| 2026-05-05 17:32 | 46.26915 | 14.34285 | 32987 ft | 497 kts | 139° |
| 2026-05-05 17:33 | 46.21942 | 14.41236 | 32992 ft | 497 kts | 140° |
| 2026-05-05 17:33 | 46.16968 | 14.48172 | 32975 ft | 497 kts | 139° |
| 2026-05-05 17:34 | 46.11985 | 14.55104 | 32991 ft | 499 kts | 139° |
| 2026-05-05 17:34 | 46.06982 | 14.62047 | 32988 ft | 499 kts | 139° |
| 2026-05-05 17:35 | 46.01979 | 14.68976 | 32983 ft | 499 kts | 139° |
| 2026-05-05 17:35 | 45.96971 | 14.75889 | 32991 ft | 499 kts | 140° |
| 2026-05-05 17:36 | 45.91950 | 14.82800 | 32979 ft | 500 kts | 139° |
| 2026-05-05 17:36 | 45.86920 | 14.89708 | 32976 ft | 500 kts | 139° |
| 2026-05-05 17:37 | 45.81889 | 14.96601 | 32974 ft | 500 kts | 139° |
| 2026-05-05 17:37 | 45.76885 | 15.03437 | 32974 ft | 500 kts | 139° |
| 2026-05-05 17:38 | 45.71847 | 15.10301 | 32971 ft | 501 kts | 139° |
| 2026-05-05 17:38 | 45.66783 | 15.17182 | 32970 ft | 502 kts | 139° |
| 2026-05-05 17:39 | 45.61716 | 15.24051 | 32971 ft | 502 kts | 139° |
| 2026-05-05 17:39 | 45.56647 | 15.30909 | 32969 ft | 502 kts | 139° |
| 2026-05-05 17:40 | 45.51797 | 15.38109 | 32965 ft | 504 kts | 135° |
| 2026-05-05 17:40 | 45.47086 | 15.45515 | 32975 ft | 504 kts | 135° |
| 2026-05-05 17:41 | 45.42342 | 15.52872 | 32975 ft | 504 kts | 135° |
| 2026-05-05 17:41 | 45.37557 | 15.60167 | 32974 ft | 504 kts | 136° |
| 2026-05-05 17:42 | 45.32756 | 15.67430 | 32977 ft | 505 kts | 136° |
| 2026-05-05 17:42 | 45.27936 | 15.74699 | 32980 ft | 506 kts | 136° |
| 2026-05-05 17:43 | 45.23101 | 15.81979 | 32986 ft | 507 kts | 136° |
| 2026-05-05 17:43 | 45.18265 | 15.89243 | 32991 ft | 506 kts | 136° |
| 2026-05-05 17:44 | 45.13450 | 15.96457 | 32990 ft | 507 kts | 136° |
| 2026-05-05 17:44 | 45.08582 | 16.03731 | 32993 ft | 509 kts | 136° |
| 2026-05-05 17:45 | 45.03708 | 16.10994 | 32993 ft | 509 kts | 136° |
| 2026-05-05 17:45 | 44.98829 | 16.18245 | 32993 ft | 509 kts | 136° |
| 2026-05-05 17:46 | 44.93938 | 16.25494 | 32992 ft | 510 kts | 136° |
| 2026-05-05 17:46 | 44.89037 | 16.32741 | 32996 ft | 511 kts | 136° |
| 2026-05-05 17:47 | 44.84125 | 16.39984 | 32995 ft | 511 kts | 136° |
| 2026-05-05 17:47 | 44.79206 | 16.47218 | 32996 ft | 511 kts | 136° |
| 2026-05-05 17:48 | 44.74289 | 16.54431 | 32992 ft | 511 kts | 136° |
| 2026-05-05 17:48 | 44.69390 | 16.61598 | 33000 ft | 512 kts | 136° |
| 2026-05-05 17:49 | 44.64446 | 16.68813 | 33001 ft | 512 kts | 136° |
| 2026-05-05 17:49 | 44.59495 | 16.76016 | 33006 ft | 512 kts | 136° |
| 2026-05-05 17:50 | 44.54541 | 16.83207 | 33011 ft | 513 kts | 136° |
| 2026-05-05 17:50 | 44.49573 | 16.90399 | 33017 ft | 514 kts | 136° |
| 2026-05-05 17:51 | 44.44601 | 16.97580 | 33022 ft | 513 kts | 136° |
| 2026-05-05 17:51 | 44.39624 | 17.04748 | 33030 ft | 513 kts | 136° |
| 2026-05-05 17:52 | 44.34642 | 17.11904 | 33034 ft | 514 kts | 136° |
| 2026-05-05 17:52 | 44.29663 | 17.19033 | 33039 ft | 516 kts | 136° |
| 2026-05-05 17:53 | 44.24612 | 17.26253 | 33036 ft | 516 kts | 136° |
| 2026-05-05 17:53 | 44.19623 | 17.33365 | 33046 ft | 515 kts | 136° |
| 2026-05-05 17:54 | 44.14586 | 17.40524 | 33050 ft | 517 kts | 137° |